sensor_id;sensor_type;location;lat;lon;timestamp;P1;durP1;ratioP1;P2;durP2;ratioP2
9563;SDS011;4820;50.870;4.702;2023-04-16T00:02:12;5.53;;;2.17;;
9563;SDS011;4820;50.870;4.702;2023-04-16T00:04:38;6.13;;;2.35;;
9563;SDS011;4820;50.870;4.702;2023-04-16T00:07:04;8.20;;;2.78;;
9563;SDS011;4820;50.870;4.702;2023-04-16T00:09:29;5.70;;;1.90;;
9563;SDS011;4820;50.870;4.702;2023-04-16T00:11:55;4.68;;;1.98;;
9563;SDS011;4820;50.870;4.702;2023-04-16T00:14:21;5.78;;;2.33;;
9563;SDS011;4820;50.870;4.702;2023-04-16T00:16:46;5.93;;;2.25;;
9563;SDS011;4820;50.870;4.702;2023-04-16T00:19:12;5.32;;;2.20;;
9563;SDS011;4820;50.870;4.702;2023-04-16T00:21:37;4.60;;;2.00;;
9563;SDS011;4820;50.870;4.702;2023-04-16T00:24:03;5.30;;;2.10;;
9563;SDS011;4820;50.870;4.702;2023-04-16T00:26:29;4.28;;;2.10;;
9563;SDS011;4820;50.870;4.702;2023-04-16T00:28:56;6.50;;;2.08;;
9563;SDS011;4820;50.870;4.702;2023-04-16T00:31:25;6.75;;;2.22;;
9563;SDS011;4820;50.870;4.702;2023-04-16T00:33:55;6.90;;;2.47;;
9563;SDS011;4820;50.870;4.702;2023-04-16T00:36:22;5.28;;;2.15;;
9563;SDS011;4820;50.870;4.702;2023-04-16T00:38:48;4.78;;;2.00;;
9563;SDS011;4820;50.870;4.702;2023-04-16T00:41:14;5.25;;;2.05;;
9563;SDS011;4820;50.870;4.702;2023-04-16T00:43:40;6.65;;;2.00;;
9563;SDS011;4820;50.870;4.702;2023-04-16T00:46:06;4.40;;;1.73;;
9563;SDS011;4820;50.870;4.702;2023-04-16T00:48:32;5.45;;;1.85;;
9563;SDS011;4820;50.870;4.702;2023-04-16T00:51:03;8.15;;;1.92;;
9563;SDS011;4820;50.870;4.702;2023-04-16T00:53:30;7.93;;;1.92;;
9563;SDS011;4820;50.870;4.702;2023-04-16T00:55:56;5.32;;;1.80;;
9563;SDS011;4820;50.870;4.702;2023-04-16T00:58:22;5.50;;;1.92;;
9563;SDS011;4820;50.870;4.702;2023-04-16T01:00:49;3.40;;;1.60;;
9563;SDS011;4820;50.870;4.702;2023-04-16T01:03:15;4.45;;;1.90;;
9563;SDS011;4820;50.870;4.702;2023-04-16T01:05:41;3.08;;;1.48;;
9563;SDS011;4820;50.870;4.702;2023-04-16T01:08:15;5.13;;;1.98;;
9563;SDS011;4820;50.870;4.702;2023-04-16T01:10:44;3.85;;;1.63;;
9563;SDS011;4820;50.870;4.702;2023-04-16T01:13:10;4.63;;;1.70;;
9563;SDS011;4820;50.870;4.702;2023-04-16T01:15:36;4.10;;;1.92;;
9563;SDS011;4820;50.870;4.702;2023-04-16T01:18:15;3.80;;;1.70;;
9563;SDS011;4820;50.870;4.702;2023-04-16T01:20:41;4.78;;;2.15;;
9563;SDS011;4820;50.870;4.702;2023-04-16T01:23:07;8.40;;;2.40;;
9563;SDS011;4820;50.870;4.702;2023-04-16T01:25:33;6.20;;;2.42;;
9563;SDS011;4820;50.870;4.702;2023-04-16T01:27:58;4.28;;;2.30;;
9563;SDS011;4820;50.870;4.702;2023-04-16T01:30:24;4.35;;;2.50;;
9563;SDS011;4820;50.870;4.702;2023-04-16T01:32:50;4.30;;;2.38;;
9563;SDS011;4820;50.870;4.702;2023-04-16T01:35:16;3.95;;;2.33;;
9563;SDS011;4820;50.870;4.702;2023-04-16T01:37:45;5.68;;;2.80;;
9563;SDS011;4820;50.870;4.702;2023-04-16T01:40:10;4.13;;;2.80;;
9563;SDS011;4820;50.870;4.702;2023-04-16T01:42:36;5.05;;;3.00;;
9563;SDS011;4820;50.870;4.702;2023-04-16T01:45:02;5.05;;;2.92;;
9563;SDS011;4820;50.870;4.702;2023-04-16T01:47:29;8.68;;;3.47;;
9563;SDS011;4820;50.870;4.702;2023-04-16T01:49:55;5.82;;;3.22;;
9563;SDS011;4820;50.870;4.702;2023-04-16T01:52:20;5.70;;;3.53;;
9563;SDS011;4820;50.870;4.702;2023-04-16T01:54:46;4.97;;;3.00;;
9563;SDS011;4820;50.870;4.702;2023-04-16T01:57:12;5.50;;;3.45;;
9563;SDS011;4820;50.870;4.702;2023-04-16T01:59:37;6.15;;;3.42;;
9563;SDS011;4820;50.870;4.702;2023-04-16T02:02:06;5.63;;;3.58;;
9563;SDS011;4820;50.870;4.702;2023-04-16T02:04:39;4.88;;;3.33;;
9563;SDS011;4820;50.870;4.702;2023-04-16T02:07:07;5.28;;;3.08;;
9563;SDS011;4820;50.870;4.702;2023-04-16T02:09:34;5.00;;;3.40;;
9563;SDS011;4820;50.870;4.702;2023-04-16T02:12:01;4.78;;;3.33;;
9563;SDS011;4820;50.870;4.702;2023-04-16T02:14:27;5.38;;;3.05;;
9563;SDS011;4820;50.870;4.702;2023-04-16T02:16:53;5.22;;;3.03;;
9563;SDS011;4820;50.870;4.702;2023-04-16T02:19:19;5.47;;;3.30;;
9563;SDS011;4820;50.870;4.702;2023-04-16T02:21:46;4.22;;;3.00;;
9563;SDS011;4820;50.870;4.702;2023-04-16T02:24:11;5.30;;;2.92;;
9563;SDS011;4820;50.870;4.702;2023-04-16T02:26:37;5.85;;;2.90;;
9563;SDS011;4820;50.870;4.702;2023-04-16T02:29:03;5.55;;;2.97;;
9563;SDS011;4820;50.870;4.702;2023-04-16T02:31:29;4.32;;;3.10;;
9563;SDS011;4820;50.870;4.702;2023-04-16T02:33:55;6.68;;;3.08;;
9563;SDS011;4820;50.870;4.702;2023-04-16T02:36:21;6.60;;;3.58;;
9563;SDS011;4820;50.870;4.702;2023-04-16T02:38:47;5.28;;;3.08;;
9563;SDS011;4820;50.870;4.702;2023-04-16T02:41:13;5.78;;;3.50;;
9563;SDS011;4820;50.870;4.702;2023-04-16T02:43:38;6.63;;;3.35;;
9563;SDS011;4820;50.870;4.702;2023-04-16T02:46:04;3.67;;;3.22;;
9563;SDS011;4820;50.870;4.702;2023-04-16T02:48:31;5.65;;;3.10;;
9563;SDS011;4820;50.870;4.702;2023-04-16T02:50:57;4.20;;;3.08;;
9563;SDS011;4820;50.870;4.702;2023-04-16T02:53:22;6.20;;;3.58;;
9563;SDS011;4820;50.870;4.702;2023-04-16T02:55:51;5.43;;;3.38;;
9563;SDS011;4820;50.870;4.702;2023-04-16T02:58:19;5.38;;;3.50;;
9563;SDS011;4820;50.870;4.702;2023-04-16T03:00:46;4.88;;;3.30;;
9563;SDS011;4820;50.870;4.702;2023-04-16T03:03:14;3.97;;;3.35;;
9563;SDS011;4820;50.870;4.702;2023-04-16T03:05:40;5.45;;;3.45;;
9563;SDS011;4820;50.870;4.702;2023-04-16T03:08:06;4.07;;;3.67;;
9563;SDS011;4820;50.870;4.702;2023-04-16T03:10:32;5.55;;;3.90;;
9563;SDS011;4820;50.870;4.702;2023-04-16T03:12:59;7.35;;;4.72;;
9563;SDS011;4820;50.870;4.702;2023-04-16T03:15:25;4.57;;;3.95;;
9563;SDS011;4820;50.870;4.702;2023-04-16T03:17:51;7.85;;;4.35;;
9563;SDS011;4820;50.870;4.702;2023-04-16T03:20:17;6.35;;;4.25;;
9563;SDS011;4820;50.870;4.702;2023-04-16T03:22:44;5.47;;;4.53;;
9563;SDS011;4820;50.870;4.702;2023-04-16T03:25:12;7.18;;;4.75;;
9563;SDS011;4820;50.870;4.702;2023-04-16T03:27:38;5.20;;;4.43;;
9563;SDS011;4820;50.870;4.702;2023-04-16T03:30:14;7.75;;;4.75;;
9563;SDS011;4820;50.870;4.702;2023-04-16T03:32:40;6.60;;;4.65;;
9563;SDS011;4820;50.870;4.702;2023-04-16T03:35:06;8.07;;;4.95;;
9563;SDS011;4820;50.870;4.702;2023-04-16T03:37:33;6.25;;;4.85;;
9563;SDS011;4820;50.870;4.702;2023-04-16T03:39:59;8.48;;;5.13;;
9563;SDS011;4820;50.870;4.702;2023-04-16T03:42:25;6.57;;;4.93;;
9563;SDS011;4820;50.870;4.702;2023-04-16T03:44:51;6.20;;;5.13;;
9563;SDS011;4820;50.870;4.702;2023-04-16T03:47:18;8.05;;;5.05;;
9563;SDS011;4820;50.870;4.702;2023-04-16T03:49:44;5.63;;;5.13;;
9563;SDS011;4820;50.870;4.702;2023-04-16T03:52:10;7.22;;;5.00;;
9563;SDS011;4820;50.870;4.702;2023-04-16T03:54:36;6.82;;;5.50;;
9563;SDS011;4820;50.870;4.702;2023-04-16T03:57:02;6.43;;;5.45;;
9563;SDS011;4820;50.870;4.702;2023-04-16T03:59:28;8.00;;;5.43;;
9563;SDS011;4820;50.870;4.702;2023-04-16T04:01:53;9.82;;;6.07;;
9563;SDS011;4820;50.870;4.702;2023-04-16T04:04:19;6.90;;;5.80;;
9563;SDS011;4820;50.870;4.702;2023-04-16T04:06:45;6.35;;;5.70;;
9563;SDS011;4820;50.870;4.702;2023-04-16T04:09:11;7.13;;;5.57;;
9563;SDS011;4820;50.870;4.702;2023-04-16T04:11:37;6.63;;;5.63;;
9563;SDS011;4820;50.870;4.702;2023-04-16T04:14:03;8.10;;;5.63;;
9563;SDS011;4820;50.870;4.702;2023-04-16T04:16:31;7.10;;;6.40;;
9563;SDS011;4820;50.870;4.702;2023-04-16T04:18:57;7.97;;;5.65;;
9563;SDS011;4820;50.870;4.702;2023-04-16T04:21:24;7.50;;;6.20;;
9563;SDS011;4820;50.870;4.702;2023-04-16T04:23:51;7.75;;;6.30;;
9563;SDS011;4820;50.870;4.702;2023-04-16T04:26:17;8.38;;;6.00;;
9563;SDS011;4820;50.870;4.702;2023-04-16T04:28:43;8.30;;;6.40;;
9563;SDS011;4820;50.870;4.702;2023-04-16T04:31:08;7.95;;;6.53;;
9563;SDS011;4820;50.870;4.702;2023-04-16T04:33:34;9.60;;;6.65;;
9563;SDS011;4820;50.870;4.702;2023-04-16T04:36:00;8.55;;;6.75;;
9563;SDS011;4820;50.870;4.702;2023-04-16T04:38:26;9.63;;;7.35;;
9563;SDS011;4820;50.870;4.702;2023-04-16T04:40:52;9.82;;;7.35;;
9563;SDS011;4820;50.870;4.702;2023-04-16T04:43:18;7.70;;;6.90;;
9563;SDS011;4820;50.870;4.702;2023-04-16T04:45:46;9.00;;;7.35;;
9563;SDS011;4820;50.870;4.702;2023-04-16T04:48:13;10.05;;;7.05;;
9563;SDS011;4820;50.870;4.702;2023-04-16T04:50:39;10.68;;;7.90;;
9563;SDS011;4820;50.870;4.702;2023-04-16T04:53:06;8.90;;;7.65;;
9563;SDS011;4820;50.870;4.702;2023-04-16T04:55:36;8.07;;;7.25;;
9563;SDS011;4820;50.870;4.702;2023-04-16T04:58:06;7.90;;;7.10;;
9563;SDS011;4820;50.870;4.702;2023-04-16T05:00:32;8.15;;;6.68;;
9563;SDS011;4820;50.870;4.702;2023-04-16T05:03:03;9.48;;;7.30;;
9563;SDS011;4820;50.870;4.702;2023-04-16T05:05:30;8.35;;;6.95;;
9563;SDS011;4820;50.870;4.702;2023-04-16T05:07:55;7.20;;;6.43;;
9563;SDS011;4820;50.870;4.702;2023-04-16T05:10:21;6.95;;;6.20;;
9563;SDS011;4820;50.870;4.702;2023-04-16T05:12:47;7.88;;;6.00;;
9563;SDS011;4820;50.870;4.702;2023-04-16T05:15:13;10.05;;;6.65;;
9563;SDS011;4820;50.870;4.702;2023-04-16T05:17:39;6.90;;;6.20;;
9563;SDS011;4820;50.870;4.702;2023-04-16T05:20:07;8.05;;;6.20;;
9563;SDS011;4820;50.870;4.702;2023-04-16T05:22:33;7.00;;;6.30;;
9563;SDS011;4820;50.870;4.702;2023-04-16T05:24:58;6.82;;;6.15;;
9563;SDS011;4820;50.870;4.702;2023-04-16T05:27:24;7.68;;;5.72;;
9563;SDS011;4820;50.870;4.702;2023-04-16T05:29:50;6.95;;;5.70;;
9563;SDS011;4820;50.870;4.702;2023-04-16T05:32:15;7.32;;;5.50;;
9563;SDS011;4820;50.870;4.702;2023-04-16T05:34:41;9.18;;;5.78;;
9563;SDS011;4820;50.870;4.702;2023-04-16T05:37:06;7.65;;;5.68;;
9563;SDS011;4820;50.870;4.702;2023-04-16T05:39:32;7.05;;;5.47;;
9563;SDS011;4820;50.870;4.702;2023-04-16T05:41:58;6.65;;;5.38;;
9563;SDS011;4820;50.870;4.702;2023-04-16T05:44:24;9.02;;;5.82;;
9563;SDS011;4820;50.870;4.702;2023-04-16T05:46:50;7.35;;;5.47;;
9563;SDS011;4820;50.870;4.702;2023-04-16T05:49:16;7.03;;;5.60;;
9563;SDS011;4820;50.870;4.702;2023-04-16T05:51:46;6.05;;;5.45;;
9563;SDS011;4820;50.870;4.702;2023-04-16T05:54:12;6.45;;;5.15;;
9563;SDS011;4820;50.870;4.702;2023-04-16T05:56:38;6.88;;;6.18;;
9563;SDS011;4820;50.870;4.702;2023-04-16T05:59:04;6.88;;;5.68;;
9563;SDS011;4820;50.870;4.702;2023-04-16T06:01:31;6.60;;;5.90;;
9563;SDS011;4820;50.870;4.702;2023-04-16T06:03:57;7.43;;;5.70;;
9563;SDS011;4820;50.870;4.702;2023-04-16T06:06:22;7.13;;;5.93;;
9563;SDS011;4820;50.870;4.702;2023-04-16T06:08:48;6.30;;;5.57;;
9563;SDS011;4820;50.870;4.702;2023-04-16T06:11:13;6.00;;;5.32;;
9563;SDS011;4820;50.870;4.702;2023-04-16T06:13:39;6.43;;;5.57;;
9563;SDS011;4820;50.870;4.702;2023-04-16T06:16:06;7.22;;;5.57;;
9563;SDS011;4820;50.870;4.702;2023-04-16T06:18:32;7.28;;;6.03;;
9563;SDS011;4820;50.870;4.702;2023-04-16T06:20:58;6.32;;;5.72;;
9563;SDS011;4820;50.870;4.702;2023-04-16T06:23:23;5.68;;;5.10;;
9563;SDS011;4820;50.870;4.702;2023-04-16T06:25:49;6.90;;;5.00;;
9563;SDS011;4820;50.870;4.702;2023-04-16T06:28:16;7.55;;;6.25;;
9563;SDS011;4820;50.870;4.702;2023-04-16T06:30:42;7.28;;;6.20;;
9563;SDS011;4820;50.870;4.702;2023-04-16T06:33:07;6.80;;;6.10;;
9563;SDS011;4820;50.870;4.702;2023-04-16T06:35:33;8.02;;;6.60;;
9563;SDS011;4820;50.870;4.702;2023-04-16T06:37:59;8.48;;;4.95;;
9563;SDS011;4820;50.870;4.702;2023-04-16T06:40:25;6.57;;;4.85;;
9563;SDS011;4820;50.870;4.702;2023-04-16T06:42:51;5.57;;;4.80;;
9563;SDS011;4820;50.870;4.702;2023-04-16T06:45:16;5.60;;;4.82;;
9563;SDS011;4820;50.870;4.702;2023-04-16T06:47:42;6.10;;;4.45;;
9563;SDS011;4820;50.870;4.702;2023-04-16T06:50:07;7.88;;;4.85;;
9563;SDS011;4820;50.870;4.702;2023-04-16T06:52:33;5.90;;;3.95;;
9563;SDS011;4820;50.870;4.702;2023-04-16T06:55:00;6.82;;;4.80;;
9563;SDS011;4820;50.870;4.702;2023-04-16T06:57:26;6.63;;;4.80;;
9563;SDS011;4820;50.870;4.702;2023-04-16T06:59:51;5.43;;;4.88;;
9563;SDS011;4820;50.870;4.702;2023-04-16T07:02:17;6.13;;;4.97;;
9563;SDS011;4820;50.870;4.702;2023-04-16T07:04:42;7.18;;;4.97;;
9563;SDS011;4820;50.870;4.702;2023-04-16T07:07:08;7.43;;;4.72;;
9563;SDS011;4820;50.870;4.702;2023-04-16T07:09:34;7.43;;;5.45;;
9563;SDS011;4820;50.870;4.702;2023-04-16T07:11:59;7.45;;;4.88;;
9563;SDS011;4820;50.870;4.702;2023-04-16T07:14:25;6.38;;;4.88;;
9563;SDS011;4820;50.870;4.702;2023-04-16T07:16:51;6.65;;;5.28;;
9563;SDS011;4820;50.870;4.702;2023-04-16T07:19:16;6.72;;;5.05;;
9563;SDS011;4820;50.870;4.702;2023-04-16T07:21:42;7.15;;;6.18;;
9563;SDS011;4820;50.870;4.702;2023-04-16T07:24:11;5.70;;;5.10;;
9563;SDS011;4820;50.870;4.702;2023-04-16T07:26:40;7.50;;;6.10;;
9563;SDS011;4820;50.870;4.702;2023-04-16T07:29:06;6.72;;;5.53;;
9563;SDS011;4820;50.870;4.702;2023-04-16T07:31:32;7.28;;;5.70;;
9563;SDS011;4820;50.870;4.702;2023-04-16T07:33:57;7.00;;;5.80;;
9563;SDS011;4820;50.870;4.702;2023-04-16T07:36:23;7.60;;;5.53;;
9563;SDS011;4820;50.870;4.702;2023-04-16T07:38:51;7.50;;;5.88;;
9563;SDS011;4820;50.870;4.702;2023-04-16T07:41:16;6.72;;;5.97;;
9563;SDS011;4820;50.870;4.702;2023-04-16T07:43:42;6.35;;;5.63;;
9563;SDS011;4820;50.870;4.702;2023-04-16T07:46:08;8.48;;;5.80;;
9563;SDS011;4820;50.870;4.702;2023-04-16T07:48:33;7.55;;;5.85;;
9563;SDS011;4820;50.870;4.702;2023-04-16T07:50:59;6.82;;;5.70;;
9563;SDS011;4820;50.870;4.702;2023-04-16T07:53:25;7.20;;;5.88;;
9563;SDS011;4820;50.870;4.702;2023-04-16T07:55:50;8.85;;;6.10;;
9563;SDS011;4820;50.870;4.702;2023-04-16T07:58:16;8.02;;;5.43;;
9563;SDS011;4820;50.870;4.702;2023-04-16T08:00:42;6.88;;;5.32;;
9563;SDS011;4820;50.870;4.702;2023-04-16T08:03:07;6.80;;;6.10;;
9563;SDS011;4820;50.870;4.702;2023-04-16T08:05:33;9.20;;;6.00;;
9563;SDS011;4820;50.870;4.702;2023-04-16T08:07:59;7.57;;;5.60;;
9563;SDS011;4820;50.870;4.702;2023-04-16T08:10:25;7.05;;;6.35;;
9563;SDS011;4820;50.870;4.702;2023-04-16T08:12:51;7.55;;;6.43;;
9563;SDS011;4820;50.870;4.702;2023-04-16T08:15:17;8.25;;;6.22;;
9563;SDS011;4820;50.870;4.702;2023-04-16T08:17:43;8.63;;;7.57;;
9563;SDS011;4820;50.870;4.702;2023-04-16T08:20:09;10.63;;;6.40;;
9563;SDS011;4820;50.870;4.702;2023-04-16T08:22:35;8.65;;;6.65;;
9563;SDS011;4820;50.870;4.702;2023-04-16T08:25:01;9.07;;;6.55;;
9563;SDS011;4820;50.870;4.702;2023-04-16T08:27:28;13.65;;;7.78;;
9563;SDS011;4820;50.870;4.702;2023-04-16T08:29:53;7.55;;;6.70;;
9563;SDS011;4820;50.870;4.702;2023-04-16T08:32:19;12.05;;;7.25;;
9563;SDS011;4820;50.870;4.702;2023-04-16T08:34:45;8.63;;;6.20;;
9563;SDS011;4820;50.870;4.702;2023-04-16T08:37:11;10.23;;;6.70;;
9563;SDS011;4820;50.870;4.702;2023-04-16T08:39:37;10.70;;;7.43;;
9563;SDS011;4820;50.870;4.702;2023-04-16T08:42:03;12.10;;;7.13;;
9563;SDS011;4820;50.870;4.702;2023-04-16T08:44:33;10.80;;;7.05;;
9563;SDS011;4820;50.870;4.702;2023-04-16T08:47:01;8.85;;;6.97;;
9563;SDS011;4820;50.870;4.702;2023-04-16T08:49:27;9.45;;;6.70;;
9563;SDS011;4820;50.870;4.702;2023-04-16T08:51:54;10.45;;;6.68;;
9563;SDS011;4820;50.870;4.702;2023-04-16T08:56:57;9.57;;;6.72;;
9563;SDS011;4820;50.870;4.702;2023-04-16T08:59:24;9.38;;;6.55;;
9563;SDS011;4820;50.870;4.702;2023-04-16T09:01:51;9.10;;;7.10;;
9563;SDS011;4820;50.870;4.702;2023-04-16T09:04:21;10.95;;;7.53;;
9563;SDS011;4820;50.870;4.702;2023-04-16T09:06:47;9.70;;;7.18;;
9563;SDS011;4820;50.870;4.702;2023-04-16T09:09:13;9.40;;;7.03;;
9563;SDS011;4820;50.870;4.702;2023-04-16T09:11:41;10.00;;;7.22;;
9563;SDS011;4820;50.870;4.702;2023-04-16T09:14:08;9.40;;;7.80;;
9563;SDS011;4820;50.870;4.702;2023-04-16T09:16:35;10.02;;;7.50;;
9563;SDS011;4820;50.870;4.702;2023-04-16T09:19:01;12.82;;;7.72;;
9563;SDS011;4820;50.870;4.702;2023-04-16T09:21:27;11.82;;;8.23;;
9563;SDS011;4820;50.870;4.702;2023-04-16T09:23:53;12.63;;;8.30;;
9563;SDS011;4820;50.870;4.702;2023-04-16T09:26:19;17.00;;;8.95;;
9563;SDS011;4820;50.870;4.702;2023-04-16T09:28:48;12.27;;;8.55;;
9563;SDS011;4820;50.870;4.702;2023-04-16T09:31:17;16.80;;;9.10;;
9563;SDS011;4820;50.870;4.702;2023-04-16T09:33:59;15.00;;;9.20;;
9563;SDS011;4820;50.870;4.702;2023-04-16T09:36:25;16.10;;;9.20;;
9563;SDS011;4820;50.870;4.702;2023-04-16T09:38:51;13.40;;;8.73;;
9563;SDS011;4820;50.870;4.702;2023-04-16T09:41:18;14.60;;;8.98;;
9563;SDS011;4820;50.870;4.702;2023-04-16T09:46:29;17.63;;;10.63;;
9563;SDS011;4820;50.870;4.702;2023-04-16T09:48:55;12.77;;;8.55;;
9563;SDS011;4820;50.870;4.702;2023-04-16T09:51:21;15.10;;;8.95;;
9563;SDS011;4820;50.870;4.702;2023-04-16T09:53:50;15.43;;;9.70;;
9563;SDS011;4820;50.870;4.702;2023-04-16T09:56:18;14.00;;;9.68;;
9563;SDS011;4820;50.870;4.702;2023-04-16T09:58:49;16.30;;;9.50;;
9563;SDS011;4820;50.870;4.702;2023-04-16T10:01:16;13.70;;;9.43;;
9563;SDS011;4820;50.870;4.702;2023-04-16T10:03:42;17.02;;;10.15;;
9563;SDS011;4820;50.870;4.702;2023-04-16T10:06:13;13.88;;;9.40;;
9563;SDS011;4820;50.870;4.702;2023-04-16T10:08:50;15.43;;;9.70;;
9563;SDS011;4820;50.870;4.702;2023-04-16T10:11:18;11.93;;;9.23;;
9563;SDS011;4820;50.870;4.702;2023-04-16T10:13:45;15.75;;;9.50;;
9563;SDS011;4820;50.870;4.702;2023-04-16T10:16:11;15.20;;;9.98;;
9563;SDS011;4820;50.870;4.702;2023-04-16T10:18:38;14.13;;;9.52;;
9563;SDS011;4820;50.870;4.702;2023-04-16T10:21:05;16.73;;;9.30;;
9563;SDS011;4820;50.870;4.702;2023-04-16T10:23:32;14.43;;;9.45;;
9563;SDS011;4820;50.870;4.702;2023-04-16T10:25:59;12.70;;;9.20;;
9563;SDS011;4820;50.870;4.702;2023-04-16T10:28:26;35.55;;;23.90;;
9563;SDS011;4820;50.870;4.702;2023-04-16T10:30:53;19.02;;;10.73;;
9563;SDS011;4820;50.870;4.702;2023-04-16T10:33:21;15.18;;;9.93;;
9563;SDS011;4820;50.870;4.702;2023-04-16T10:35:51;13.55;;;9.20;;
9563;SDS011;4820;50.870;4.702;2023-04-16T10:38:24;14.55;;;9.05;;
9563;SDS011;4820;50.870;4.702;2023-04-16T10:40:58;19.50;;;10.05;;
9563;SDS011;4820;50.870;4.702;2023-04-16T10:43:26;17.17;;;10.05;;
9563;SDS011;4820;50.870;4.702;2023-04-16T10:45:53;15.18;;;9.73;;
9563;SDS011;4820;50.870;4.702;2023-04-16T10:48:19;13.40;;;8.40;;
9563;SDS011;4820;50.870;4.702;2023-04-16T10:51:03;16.35;;;8.82;;
9563;SDS011;4820;50.870;4.702;2023-04-16T10:53:29;11.75;;;8.88;;
9563;SDS011;4820;50.870;4.702;2023-04-16T10:58:27;15.05;;;8.77;;
9563;SDS011;4820;50.870;4.702;2023-04-16T11:00:54;15.63;;;8.50;;
9563;SDS011;4820;50.870;4.702;2023-04-16T11:03:19;16.50;;;9.98;;
9563;SDS011;4820;50.870;4.702;2023-04-16T11:05:45;15.93;;;9.43;;
9563;SDS011;4820;50.870;4.702;2023-04-16T11:08:14;12.90;;;8.75;;
9563;SDS011;4820;50.870;4.702;2023-04-16T11:10:40;13.32;;;8.52;;
9563;SDS011;4820;50.870;4.702;2023-04-16T11:13:06;13.95;;;8.77;;
9563;SDS011;4820;50.870;4.702;2023-04-16T11:15:33;15.10;;;8.93;;
9563;SDS011;4820;50.870;4.702;2023-04-16T11:17:59;12.48;;;8.70;;
9563;SDS011;4820;50.870;4.702;2023-04-16T11:20:25;10.23;;;8.77;;
9563;SDS011;4820;50.870;4.702;2023-04-16T11:22:55;12.73;;;8.65;;
9563;SDS011;4820;50.870;4.702;2023-04-16T11:25:22;14.40;;;9.60;;
9563;SDS011;4820;50.870;4.702;2023-04-16T11:27:48;14.52;;;8.73;;
9563;SDS011;4820;50.870;4.702;2023-04-16T11:30:26;15.50;;;8.40;;
9563;SDS011;4820;50.870;4.702;2023-04-16T11:32:53;12.27;;;8.35;;
9563;SDS011;4820;50.870;4.702;2023-04-16T11:35:19;14.52;;;9.30;;
9563;SDS011;4820;50.870;4.702;2023-04-16T11:37:45;18.63;;;9.40;;
9563;SDS011;4820;50.870;4.702;2023-04-16T11:40:12;15.02;;;10.30;;
9563;SDS011;4820;50.870;4.702;2023-04-16T11:42:39;15.93;;;10.48;;
9563;SDS011;4820;50.870;4.702;2023-04-16T11:45:06;18.48;;;11.80;;
9563;SDS011;4820;50.870;4.702;2023-04-16T11:47:43;15.85;;;10.63;;
9563;SDS011;4820;50.870;4.702;2023-04-16T11:52:46;12.15;;;9.73;;
9563;SDS011;4820;50.870;4.702;2023-04-16T11:55:13;13.20;;;9.98;;
9563;SDS011;4820;50.870;4.702;2023-04-16T11:57:40;13.63;;;9.90;;
9563;SDS011;4820;50.870;4.702;2023-04-16T12:00:05;14.35;;;10.27;;
9563;SDS011;4820;50.870;4.702;2023-04-16T12:02:37;16.13;;;9.52;;
9563;SDS011;4820;50.870;4.702;2023-04-16T12:05:06;13.55;;;9.20;;
9563;SDS011;4820;50.870;4.702;2023-04-16T12:07:53;12.45;;;9.07;;
9563;SDS011;4820;50.870;4.702;2023-04-16T12:10:19;12.35;;;9.95;;
9563;SDS011;4820;50.870;4.702;2023-04-16T12:12:45;13.15;;;9.70;;
9563;SDS011;4820;50.870;4.702;2023-04-16T12:15:11;12.73;;;9.15;;
9563;SDS011;4820;50.870;4.702;2023-04-16T12:17:36;11.43;;;9.40;;
9563;SDS011;4820;50.870;4.702;2023-04-16T12:20:03;15.77;;;10.05;;
9563;SDS011;4820;50.870;4.702;2023-04-16T12:22:37;11.38;;;10.13;;
9563;SDS011;4820;50.870;4.702;2023-04-16T12:25:05;11.98;;;10.00;;
9563;SDS011;4820;50.870;4.702;2023-04-16T12:27:44;12.45;;;10.00;;
9563;SDS011;4820;50.870;4.702;2023-04-16T12:30:12;14.70;;;10.60;;
9563;SDS011;4820;50.870;4.702;2023-04-16T12:32:47;16.70;;;11.45;;
9563;SDS011;4820;50.870;4.702;2023-04-16T12:35:30;12.50;;;10.77;;
9563;SDS011;4820;50.870;4.702;2023-04-16T12:37:58;13.43;;;9.95;;
9563;SDS011;4820;50.870;4.702;2023-04-16T12:40:24;12.93;;;10.25;;
9563;SDS011;4820;50.870;4.702;2023-04-16T12:42:50;15.07;;;10.02;;
9563;SDS011;4820;50.870;4.702;2023-04-16T12:45:16;15.40;;;11.13;;
9563;SDS011;4820;50.870;4.702;2023-04-16T12:47:42;12.95;;;10.95;;
9563;SDS011;4820;50.870;4.702;2023-04-16T12:50:07;13.23;;;10.75;;
9563;SDS011;4820;50.870;4.702;2023-04-16T12:52:34;13.30;;;11.82;;
9563;SDS011;4820;50.870;4.702;2023-04-16T12:55:00;15.48;;;12.27;;
9563;SDS011;4820;50.870;4.702;2023-04-16T12:57:26;14.52;;;12.55;;
9563;SDS011;4820;50.870;4.702;2023-04-16T12:59:56;11.77;;;10.55;;
9563;SDS011;4820;50.870;4.702;2023-04-16T13:02:22;14.68;;;11.82;;
9563;SDS011;4820;50.870;4.702;2023-04-16T13:04:49;14.20;;;12.18;;
9563;SDS011;4820;50.870;4.702;2023-04-16T13:07:18;14.40;;;10.85;;
9563;SDS011;4820;50.870;4.702;2023-04-16T13:09:45;13.43;;;11.23;;
9563;SDS011;4820;50.870;4.702;2023-04-16T13:12:11;13.23;;;11.85;;
9563;SDS011;4820;50.870;4.702;2023-04-16T13:14:37;13.73;;;11.00;;
9563;SDS011;4820;50.870;4.702;2023-04-16T13:17:03;13.32;;;11.55;;
9563;SDS011;4820;50.870;4.702;2023-04-16T13:19:29;12.88;;;10.70;;
9563;SDS011;4820;50.870;4.702;2023-04-16T13:21:55;14.23;;;12.02;;
9563;SDS011;4820;50.870;4.702;2023-04-16T13:24:20;14.37;;;12.67;;
9563;SDS011;4820;50.870;4.702;2023-04-16T13:26:47;13.57;;;12.05;;
9563;SDS011;4820;50.870;4.702;2023-04-16T13:29:14;16.15;;;12.40;;
9563;SDS011;4820;50.870;4.702;2023-04-16T13:31:39;13.77;;;11.57;;
9563;SDS011;4820;50.870;4.702;2023-04-16T13:34:05;13.38;;;11.20;;
9563;SDS011;4820;50.870;4.702;2023-04-16T13:36:31;12.27;;;10.50;;
9563;SDS011;4820;50.870;4.702;2023-04-16T13:38:58;15.65;;;11.82;;
9563;SDS011;4820;50.870;4.702;2023-04-16T13:41:24;12.45;;;10.93;;
9563;SDS011;4820;50.870;4.702;2023-04-16T13:43:49;12.95;;;11.43;;
9563;SDS011;4820;50.870;4.702;2023-04-16T13:46:15;13.55;;;11.07;;
9563;SDS011;4820;50.870;4.702;2023-04-16T13:48:40;12.68;;;10.65;;
9563;SDS011;4820;50.870;4.702;2023-04-16T13:51:06;16.90;;;12.38;;
9563;SDS011;4820;50.870;4.702;2023-04-16T13:53:32;16.25;;;12.38;;
9563;SDS011;4820;50.870;4.702;2023-04-16T13:55:58;15.32;;;11.73;;
9563;SDS011;4820;50.870;4.702;2023-04-16T13:58:24;13.07;;;11.43;;
9563;SDS011;4820;50.870;4.702;2023-04-16T14:00:52;14.00;;;11.50;;
9563;SDS011;4820;50.870;4.702;2023-04-16T14:03:18;13.98;;;10.98;;
9563;SDS011;4820;50.870;4.702;2023-04-16T14:05:43;16.67;;;11.82;;
9563;SDS011;4820;50.870;4.702;2023-04-16T14:08:09;13.00;;;11.48;;
9563;SDS011;4820;50.870;4.702;2023-04-16T14:10:49;14.82;;;12.50;;
9563;SDS011;4820;50.870;4.702;2023-04-16T14:13:24;13.63;;;11.10;;
9563;SDS011;4820;50.870;4.702;2023-04-16T14:15:53;14.25;;;12.05;;
9563;SDS011;4820;50.870;4.702;2023-04-16T14:18:19;13.57;;;12.25;;
9563;SDS011;4820;50.870;4.702;2023-04-16T14:20:45;15.15;;;11.60;;
9563;SDS011;4820;50.870;4.702;2023-04-16T14:23:11;14.32;;;11.02;;
9563;SDS011;4820;50.870;4.702;2023-04-16T14:25:37;14.98;;;11.15;;
9563;SDS011;4820;50.870;4.702;2023-04-16T14:28:03;15.38;;;11.43;;
9563;SDS011;4820;50.870;4.702;2023-04-16T14:30:29;13.75;;;11.68;;
9563;SDS011;4820;50.870;4.702;2023-04-16T14:32:55;15.23;;;12.32;;
9563;SDS011;4820;50.870;4.702;2023-04-16T14:35:21;14.07;;;11.25;;
9563;SDS011;4820;50.870;4.702;2023-04-16T14:37:47;16.77;;;12.70;;
9563;SDS011;4820;50.870;4.702;2023-04-16T14:40:13;17.30;;;12.23;;
9563;SDS011;4820;50.870;4.702;2023-04-16T14:42:39;12.77;;;11.45;;
9563;SDS011;4820;50.870;4.702;2023-04-16T14:45:05;13.60;;;12.20;;
9563;SDS011;4820;50.870;4.702;2023-04-16T14:47:35;14.93;;;12.43;;
9563;SDS011;4820;50.870;4.702;2023-04-16T14:50:01;14.73;;;13.23;;
9563;SDS011;4820;50.870;4.702;2023-04-16T14:52:29;15.93;;;12.52;;
9563;SDS011;4820;50.870;4.702;2023-04-16T14:54:55;16.42;;;13.10;;
9563;SDS011;4820;50.870;4.702;2023-04-16T14:57:21;13.45;;;11.88;;
9563;SDS011;4820;50.870;4.702;2023-04-16T14:59:47;15.27;;;12.20;;
9563;SDS011;4820;50.870;4.702;2023-04-16T15:02:13;13.55;;;12.07;;
9563;SDS011;4820;50.870;4.702;2023-04-16T15:04:39;13.90;;;11.57;;
9563;SDS011;4820;50.870;4.702;2023-04-16T15:07:05;14.85;;;12.40;;
9563;SDS011;4820;50.870;4.702;2023-04-16T15:09:38;14.73;;;12.73;;
9563;SDS011;4820;50.870;4.702;2023-04-16T15:12:04;16.05;;;12.57;;
9563;SDS011;4820;50.870;4.702;2023-04-16T15:14:31;15.13;;;13.63;;